createdAt,value
2017-03-07T00:00:29.428Z,0
2017-03-07T00:01:38.417Z,0
2017-03-07T00:02:47.389Z,0
2017-03-07T00:03:56.380Z,0
2017-03-07T00:05:05.614Z,0
2017-03-07T00:06:14.602Z,0
2017-03-07T00:07:23.574Z,0
2017-03-07T00:08:32.547Z,0
2017-03-07T00:09:41.551Z,0
2017-03-07T00:10:50.819Z,0
2017-03-07T00:11:59.789Z,0
2017-03-07T00:13:08.766Z,0
2017-03-07T00:14:17.744Z,0
2017-03-07T00:15:26.732Z,0
2017-03-07T00:16:35.960Z,0
2017-03-07T00:17:45.027Z,0
2017-03-07T00:18:54.006Z,0
2017-03-07T00:20:02.998Z,0
2017-03-07T00:21:11.976Z,0
2017-03-07T00:22:21.330Z,0
2017-03-07T00:23:30.314Z,0
2017-03-07T00:24:39.401Z,0
2017-03-07T00:25:48.373Z,0
2017-03-07T00:26:57.359Z,0
2017-03-07T00:28:06.817Z,0
2017-03-07T00:29:15.810Z,0
2017-03-07T00:30:24.906Z,0
2017-03-07T00:31:33.883Z,0
2017-03-07T00:32:42.867Z,0
2017-03-07T00:33:52.154Z,0
2017-03-07T00:35:01.226Z,0
2017-03-07T00:36:10.213Z,0
2017-03-07T00:37:19.274Z,0
2017-03-07T00:38:28.348Z,0
2017-03-07T00:39:37.620Z,0
2017-03-07T00:40:46.594Z,0
2017-03-07T00:41:55.693Z,0
2017-03-07T00:43:04.676Z,0
2017-03-07T00:44:13.670Z,0
2017-03-07T00:45:22.899Z,0
2017-03-07T00:46:31.894Z,0
2017-03-07T00:47:40.879Z,0
2017-03-07T00:48:49.860Z,0
2017-03-07T00:49:58.852Z,0
2017-03-07T00:51:08.132Z,0
2017-03-07T00:52:17.117Z,0
2017-03-07T00:53:26.096Z,0
2017-03-07T00:54:35.110Z,0
2017-03-07T00:55:44.119Z,0
2017-03-07T00:56:53.484Z,0
2017-03-07T00:58:02.472Z,0
2017-03-07T00:59:11.453Z,0
2017-03-07T01:00:20.428Z,0
2017-03-07T01:01:29.860Z,0
2017-03-07T01:02:39.153Z,0
2017-03-07T01:03:48.125Z,0
2017-03-07T01:04:57.096Z,0
2017-03-07T01:06:06.078Z,0
2017-03-07T01:07:15.055Z,0
2017-03-07T01:08:24.543Z,0
2017-03-07T01:09:33.550Z,0
2017-03-07T01:10:43.037Z,0
2017-03-07T01:11:52.010Z,0
2017-03-07T01:13:01.155Z,0
2017-03-07T01:14:10.428Z,0
2017-03-07T01:15:19.922Z,0
2017-03-07T01:16:28.925Z,0
2017-03-07T01:17:37.929Z,0
2017-03-07T01:18:46.923Z,0
2017-03-07T01:19:56.158Z,0
2017-03-07T01:21:05.158Z,0
2017-03-07T01:22:14.154Z,0
2017-03-07T01:23:23.144Z,0
2017-03-07T01:24:32.137Z,0
2017-03-07T01:25:41.433Z,0
2017-03-07T01:26:50.430Z,0
2017-03-07T01:27:59.414Z,0
2017-03-07T01:29:08.390Z,0
2017-03-07T01:30:17.786Z,0
2017-03-07T01:31:27.157Z,0
2017-03-07T01:32:36.187Z,0
2017-03-07T01:33:45.185Z,0
2017-03-07T01:34:54.211Z,0
2017-03-07T01:36:03.196Z,0
2017-03-07T01:37:12.478Z,0
2017-03-07T01:38:21.540Z,0
2017-03-07T01:39:30.510Z,0
2017-03-07T01:40:39.606Z,0
2017-03-07T01:41:48.593Z,0
2017-03-07T01:42:57.815Z,0
2017-03-07T01:44:06.905Z,0
2017-03-07T01:45:15.900Z,0
2017-03-07T01:46:25.299Z,0
2017-03-07T01:47:34.274Z,0
2017-03-07T01:48:43.555Z,0
2017-03-07T01:49:52.568Z,0
2017-03-07T01:51:01.558Z,0
2017-03-07T01:52:10.533Z,0
2017-03-07T01:53:19.528Z,0
2017-03-07T01:54:28.817Z,0
2017-03-07T01:55:37.817Z,0
2017-03-07T01:56:46.880Z,0
2017-03-07T01:57:55.890Z,0
2017-03-07T01:59:04.881Z,0
2017-03-07T02:00:14.190Z,0
2017-03-07T02:01:23.168Z,0
2017-03-07T02:02:32.140Z,0
2017-03-07T02:03:41.135Z,0
2017-03-07T02:04:50.107Z,0
2017-03-07T02:05:59.464Z,0
2017-03-07T02:07:08.523Z,0
2017-03-07T02:08:17.504Z,0
2017-03-07T02:09:26.493Z,0
2017-03-07T02:10:35.463Z,0
2017-03-07T02:11:45.107Z,0
2017-03-07T02:12:54.096Z,0
2017-03-07T02:14:03.069Z,0
2017-03-07T02:15:12.054Z,0
2017-03-07T02:16:21.038Z,0
2017-03-07T02:17:30.259Z,0
2017-03-07T02:18:39.257Z,0
2017-03-07T02:19:48.249Z,0
2017-03-07T02:20:57.221Z,0
2017-03-07T02:22:06.281Z,0
2017-03-07T02:23:15.551Z,0
2017-03-07T02:24:24.622Z,0
2017-03-07T02:25:34.024Z,0
2017-03-07T02:26:43.014Z,0
2017-03-07T02:27:51.989Z,0
2017-03-07T02:29:01.686Z,0
2017-03-07T02:30:10.680Z,0
2017-03-07T02:31:19.681Z,0
2017-03-07T02:32:28.655Z,0
2017-03-07T02:33:37.650Z,0
2017-03-07T02:34:46.928Z,0
2017-03-07T02:35:55.899Z,0
2017-03-07T02:37:04.884Z,0
2017-03-07T02:38:13.852Z,0
2017-03-07T02:39:22.866Z,0
2017-03-07T02:40:32.187Z,0
2017-03-07T02:41:41.176Z,0
2017-03-07T02:42:50.324Z,0
2017-03-07T02:43:59.297Z,0
2017-03-07T02:45:08.278Z,0
2017-03-07T02:46:17.506Z,0
2017-03-07T02:47:26.576Z,0
2017-03-07T02:48:35.565Z,0
2017-03-07T02:49:44.545Z,0
2017-03-07T02:50:53.515Z,0
2017-03-07T02:52:02.878Z,0
2017-03-07T02:53:11.947Z,0
2017-03-07T02:54:20.932Z,0
2017-03-07T02:55:30.322Z,0
2017-03-07T02:56:39.332Z,0
2017-03-07T02:57:48.600Z,0
2017-03-07T02:58:57.589Z,0
2017-03-07T03:00:06.599Z,0
2017-03-07T03:01:15.567Z,0
2017-03-07T03:02:24.560Z,0
2017-03-07T03:03:33.799Z,0
2017-03-07T03:04:42.863Z,0
2017-03-07T03:05:51.870Z,0
2017-03-07T03:07:00.851Z,0
2017-03-07T03:08:09.847Z,0
2017-03-07T03:09:19.135Z,0
2017-03-07T03:10:28.132Z,0
2017-03-07T03:11:37.140Z,0
2017-03-07T03:12:46.229Z,0
2017-03-07T03:13:55.330Z,0
2017-03-07T03:15:04.613Z,0
2017-03-07T03:16:13.690Z,0
2017-03-07T03:17:22.748Z,0
2017-03-07T03:18:31.731Z,0
2017-03-07T03:19:40.697Z,0
2017-03-07T03:20:49.978Z,0
2017-03-07T03:21:58.960Z,0
2017-03-07T03:23:07.951Z,0
2017-03-07T03:24:16.936Z,0
2017-03-07T03:25:25.907Z,0
2017-03-07T03:26:35.601Z,0
2017-03-07T03:27:44.597Z,0
2017-03-07T03:28:53.671Z,0
2017-03-07T03:30:02.658Z,0
2017-03-07T03:31:11.728Z,0
2017-03-07T03:32:20.997Z,0
2017-03-07T03:33:29.982Z,0
2017-03-07T03:34:38.975Z,0
2017-03-07T03:35:47.962Z,0
2017-03-07T03:36:57.477Z,0
2017-03-07T03:38:06.755Z,0
2017-03-07T03:39:15.718Z,0
2017-03-07T03:40:24.686Z,0
2017-03-07T03:41:33.659Z,0
2017-03-07T03:42:42.653Z,0
2017-03-07T03:43:52.103Z,0
2017-03-07T03:45:01.515Z,0
2017-03-07T03:46:10.499Z,0
2017-03-07T03:47:19.468Z,0
2017-03-07T03:48:28.442Z,0
2017-03-07T03:49:37.669Z,0
2017-03-07T03:50:46.728Z,0
2017-03-07T03:51:55.762Z,0
2017-03-07T03:53:04.841Z,0
2017-03-07T03:54:13.819Z,0
2017-03-07T03:55:23.108Z,0
2017-03-07T03:56:32.087Z,0
2017-03-07T03:57:41.073Z,0
2017-03-07T03:58:50.048Z,0
2017-03-07T03:59:59.025Z,0
2017-03-07T04:01:08.250Z,0
2017-03-07T04:02:17.234Z,0
2017-03-07T04:03:26.618Z,0
2017-03-07T04:04:35.686Z,0
2017-03-07T04:05:44.673Z,0
2017-03-07T04:06:53.946Z,0
2017-03-07T04:08:03.014Z,0
2017-03-07T04:09:12.031Z,0
2017-03-07T04:10:21.003Z,0
2017-03-07T04:11:30.376Z,0
2017-03-07T04:12:39.600Z,0
2017-03-07T04:13:48.587Z,0
2017-03-07T04:14:57.562Z,0
2017-03-07T04:16:06.642Z,0
2017-03-07T04:17:15.628Z,0
2017-03-07T04:18:24.853Z,0
2017-03-07T04:19:33.830Z,0
2017-03-07T04:20:42.808Z,0
2017-03-07T04:21:51.775Z,0
2017-03-07T04:23:00.756Z,0
2017-03-07T04:24:10.045Z,0
2017-03-07T04:25:19.103Z,0
2017-03-07T04:26:28.168Z,0
2017-03-07T04:27:37.159Z,0
2017-03-07T04:28:46.143Z,0
2017-03-07T04:29:55.408Z,0
2017-03-07T04:31:04.402Z,0
2017-03-07T04:32:13.377Z,0
2017-03-07T04:33:22.360Z,0
2017-03-07T04:34:31.339Z,0
2017-03-07T04:35:41.198Z,0
2017-03-07T04:36:50.195Z,0
2017-03-07T04:37:59.194Z,0
2017-03-07T04:39:08.578Z,0
2017-03-07T04:40:17.565Z,0
2017-03-07T04:41:26.842Z,0
2017-03-07T04:42:35.814Z,0
2017-03-07T04:43:44.799Z,0
2017-03-07T04:44:53.768Z,0
2017-03-07T04:46:02.734Z,0
2017-03-07T04:47:11.959Z,0
2017-03-07T04:48:20.959Z,0
2017-03-07T04:49:30.358Z,0
2017-03-07T04:50:39.363Z,0
2017-03-07T04:51:48.333Z,0
2017-03-07T04:52:57.564Z,0
2017-03-07T04:54:06.548Z,0
2017-03-07T04:55:15.523Z,0
2017-03-07T04:56:24.582Z,0
2017-03-07T04:57:33.549Z,0
2017-03-07T04:58:42.775Z,0
2017-03-07T04:59:51.762Z,0
2017-03-07T05:01:01.640Z,0
2017-03-07T05:02:10.632Z,0
2017-03-07T05:03:19.624Z,0
2017-03-07T05:04:29.006Z,0
2017-03-07T05:05:37.995Z,0
2017-03-07T05:06:46.993Z,0
2017-03-07T05:07:56.042Z,0
2017-03-07T05:09:05.023Z,0
2017-03-07T05:10:14.352Z,0
2017-03-07T05:11:23.321Z,0
2017-03-07T05:12:32.290Z,0
2017-03-07T05:13:41.259Z,0
2017-03-07T05:14:50.344Z,0
2017-03-07T05:15:59.707Z,0
2017-03-07T05:17:08.685Z,0
2017-03-07T05:18:17.683Z,0
2017-03-07T05:19:26.653Z,0
2017-03-07T05:20:35.620Z,0
2017-03-07T05:21:44.585Z,0
2017-03-07T05:22:53.578Z,0
2017-03-07T05:24:02.573Z,0
2017-03-07T05:25:11.559Z,0
2017-03-07T05:26:20.813Z,0
2017-03-07T05:27:29.896Z,0
2017-03-07T05:28:38.964Z,0
2017-03-07T05:29:47.935Z,0
2017-03-07T05:30:56.926Z,0
2017-03-07T05:32:06.147Z,0
2017-03-07T05:33:15.157Z,0
2017-03-07T05:34:24.148Z,0
2017-03-07T05:35:33.115Z,0
2017-03-07T05:36:42.123Z,0
2017-03-07T05:37:51.352Z,0
2017-03-07T05:39:00.330Z,0
2017-03-07T05:40:09.720Z,0
2017-03-07T05:41:18.690Z,0
2017-03-07T05:42:27.688Z,0
2017-03-07T05:43:36.931Z,0
2017-03-07T05:44:45.925Z,0
2017-03-07T05:45:54.890Z,0
2017-03-07T05:47:03.985Z,0
2017-03-07T05:48:12.965Z,0
2017-03-07T05:49:22.190Z,0
2017-03-07T05:50:31.180Z,0
2017-03-07T05:51:40.169Z,0
2017-03-07T05:52:49.148Z,0
2017-03-07T05:53:58.522Z,0
2017-03-07T05:55:07.789Z,0
2017-03-07T05:56:16.776Z,0
2017-03-07T05:57:25.753Z,0
2017-03-07T05:58:34.817Z,0
2017-03-07T05:59:43.788Z,0
2017-03-07T06:00:53.038Z,0
2017-03-07T06:02:02.011Z,0
2017-03-07T06:03:10.993Z,0
2017-03-07T06:04:20.042Z,5
2017-03-07T06:05:29.023Z,5
2017-03-07T06:06:38.338Z,5
2017-03-07T06:07:47.310Z,5
2017-03-07T06:08:56.285Z,5
2017-03-07T06:10:05.261Z,5
2017-03-07T06:11:14.229Z,5
2017-03-07T06:12:23.461Z,5
2017-03-07T06:13:32.432Z,5
2017-03-07T06:14:41.411Z,5
2017-03-07T06:15:50.509Z,5
2017-03-07T06:16:59.483Z,5
2017-03-07T06:18:08.783Z,10
2017-03-07T06:19:17.767Z,10
2017-03-07T06:20:26.739Z,10
2017-03-07T06:21:35.732Z,10
2017-03-07T06:22:44.719Z,10
2017-03-07T06:23:54.011Z,10
2017-03-07T06:25:02.987Z,10
2017-03-07T06:26:11.981Z,15
2017-03-07T06:27:21.068Z,15
2017-03-07T06:28:30.063Z,15
2017-03-07T06:29:39.289Z,20
2017-03-07T06:30:48.285Z,20
2017-03-07T06:31:57.755Z,25
2017-03-07T06:33:06.746Z,25
2017-03-07T06:34:15.723Z,25
2017-03-07T06:35:25.042Z,25
2017-03-07T06:36:34.027Z,25
2017-03-07T06:37:43.013Z,25
2017-03-07T06:38:51.987Z,25
2017-03-07T06:40:00.964Z,25
2017-03-07T06:41:10.305Z,25
2017-03-07T06:42:19.280Z,25
2017-03-07T06:43:28.348Z,20
2017-03-07T06:44:37.343Z,20
2017-03-07T06:45:46.734Z,20
2017-03-07T06:46:56.150Z,25
2017-03-07T06:48:05.148Z,25
2017-03-07T06:49:14.119Z,25
2017-03-07T06:50:23.087Z,25
2017-03-07T06:51:32.068Z,25
2017-03-07T06:52:41.973Z,25
2017-03-07T06:53:50.947Z,30
2017-03-07T06:54:59.927Z,30
2017-03-07T06:56:08.921Z,30
2017-03-07T06:57:18.332Z,30
2017-03-07T06:58:27.622Z,25
2017-03-07T06:59:36.612Z,25
2017-03-07T07:00:45.615Z,25
2017-03-07T07:01:54.587Z,25
2017-03-07T07:03:03.563Z,25
2017-03-07T07:04:12.850Z,25
2017-03-07T07:05:21.831Z,25
2017-03-07T07:06:30.798Z,25
2017-03-07T07:07:39.764Z,25
2017-03-07T07:08:48.758Z,25
2017-03-07T07:09:57.977Z,25
2017-03-07T07:11:06.968Z,25
2017-03-07T07:12:15.953Z,30
2017-03-07T07:13:24.936Z,35
2017-03-07T07:14:33.940Z,40
2017-03-07T07:15:43.212Z,40
2017-03-07T07:16:52.213Z,35
2017-03-07T07:18:01.601Z,40
2017-03-07T07:19:10.584Z,35
2017-03-07T07:20:19.559Z,40
2017-03-07T07:21:28.847Z,40
2017-03-07T07:22:37.826Z,40
2017-03-07T07:23:46.807Z,40
2017-03-07T07:24:55.790Z,40
2017-03-07T07:26:05.032Z,40
2017-03-07T07:27:15.091Z,40
2017-03-07T07:28:24.200Z,45
2017-03-07T07:29:33.214Z,45
2017-03-07T07:30:42.318Z,45
2017-03-07T07:31:51.785Z,50
2017-03-07T07:33:01.392Z,50
2017-03-07T07:34:10.431Z,50
2017-03-07T07:35:19.609Z,60
2017-03-07T07:36:28.631Z,65
2017-03-07T07:37:37.658Z,70
2017-03-07T07:38:47.043Z,70
2017-03-07T07:39:56.153Z,60
2017-03-07T07:41:05.562Z,45
2017-03-07T07:42:14.645Z,40
2017-03-07T07:43:23.727Z,35
2017-03-07T07:44:33.127Z,40
2017-03-07T07:45:42.235Z,40
2017-03-07T07:46:51.216Z,25
2017-03-07T07:48:00.252Z,25
2017-03-07T07:49:09.229Z,30
2017-03-07T07:50:18.970Z,35
2017-03-07T07:51:27.944Z,35
2017-03-07T07:52:37.098Z,35
2017-03-07T07:53:46.105Z,35
2017-03-07T07:54:55.089Z,35
2017-03-07T07:56:04.433Z,35
2017-03-07T07:57:13.491Z,40
2017-03-07T07:58:22.554Z,40
2017-03-07T07:59:31.833Z,40
2017-03-07T08:00:40.817Z,35
2017-03-07T08:01:50.051Z,35
2017-03-07T08:02:59.151Z,35
2017-03-07T08:04:08.788Z,35
2017-03-07T08:05:17.864Z,35
2017-03-07T08:06:27.079Z,40
2017-03-07T08:07:36.917Z,50
2017-03-07T08:08:45.997Z,55
2017-03-07T08:09:55.015Z,65
2017-03-07T08:11:03.997Z,85
2017-03-07T08:12:12.966Z,95
2017-03-07T08:13:22.215Z,100
2017-03-07T08:14:31.188Z,95
2017-03-07T08:15:40.259Z,85
2017-03-07T08:16:49.323Z,90
2017-03-07T08:17:58.306Z,95
2017-03-07T08:19:07.590Z,95
2017-03-07T08:20:16.574Z,90
2017-03-07T08:21:25.569Z,90
2017-03-07T08:22:34.547Z,85
2017-03-07T08:23:43.539Z,85
2017-03-07T08:24:52.820Z,95
2017-03-07T08:26:01.803Z,75
2017-03-07T08:27:10.811Z,80
2017-03-07T08:28:20.169Z,85
2017-03-07T08:29:29.319Z,110
2017-03-07T08:30:38.871Z,110
2017-03-07T08:31:48.004Z,115
2017-03-07T08:32:57.070Z,115
2017-03-07T08:34:06.076Z,110
2017-03-07T08:35:15.499Z,115
2017-03-07T08:36:24.938Z,115
2017-03-07T08:37:34.035Z,120
2017-03-07T08:38:43.017Z,115
2017-03-07T08:39:52.234Z,125
2017-03-07T08:41:01.623Z,100
2017-03-07T08:42:11.051Z,75
2017-03-07T08:43:20.405Z,70
2017-03-07T08:44:29.403Z,70
2017-03-07T08:45:38.381Z,70
2017-03-07T08:46:47.374Z,80
2017-03-07T08:47:56.648Z,75
2017-03-07T08:49:05.754Z,80
2017-03-07T08:50:15.040Z,90
2017-03-07T08:51:24.300Z,100
2017-03-07T08:52:33.442Z,115
2017-03-07T08:53:42.929Z,120
2017-03-07T08:54:52.020Z,125
2017-03-07T08:56:01.417Z,125
2017-03-07T08:57:10.893Z,120
2017-03-07T08:58:19.929Z,110
2017-03-07T08:59:29.747Z,85
2017-03-07T09:00:38.796Z,70
2017-03-07T09:01:47.892Z,75
2017-03-07T09:02:57.170Z,85
2017-03-07T09:04:06.176Z,95
2017-03-07T09:05:15.421Z,105
2017-03-07T09:06:24.503Z,100
2017-03-07T09:07:33.478Z,100
2017-03-07T09:08:42.455Z,95
2017-03-07T09:09:51.835Z,90
2017-03-07T09:11:01.173Z,95
2017-03-07T09:12:10.245Z,95
2017-03-07T09:13:19.300Z,90
2017-03-07T09:14:28.355Z,95
2017-03-07T09:15:37.433Z,85
2017-03-07T09:16:46.748Z,85
2017-03-07T09:17:55.760Z,80
2017-03-07T09:19:04.751Z,90
2017-03-07T09:20:13.778Z,90
2017-03-07T09:21:22.758Z,90
2017-03-07T09:22:31.994Z,90
2017-03-07T09:23:40.966Z,90
2017-03-07T09:24:49.961Z,85
2017-03-07T09:26:02.787Z,85
2017-03-07T09:27:24.984Z,75
2017-03-07T09:28:47.156Z,70
2017-03-07T09:29:57.340Z,70
2017-03-07T09:31:06.727Z,70
2017-03-07T09:32:15.799Z,70
2017-03-07T09:33:25.464Z,75
2017-03-07T09:34:34.544Z,75
2017-03-07T09:35:43.671Z,75
2017-03-07T09:36:52.768Z,70
2017-03-07T09:38:01.741Z,70
2017-03-07T09:39:10.977Z,70
2017-03-07T09:40:19.959Z,70
2017-03-07T09:41:29.107Z,75
2017-03-07T09:42:38.083Z,70
2017-03-07T09:43:47.084Z,75
2017-03-07T09:44:56.326Z,70
2017-03-07T09:46:05.292Z,70
2017-03-07T09:47:14.368Z,70
2017-03-07T09:48:23.390Z,75
2017-03-07T09:49:32.389Z,80
2017-03-07T09:50:41.754Z,80
2017-03-07T09:51:50.753Z,75
2017-03-07T09:52:59.731Z,65
2017-03-07T09:54:08.734Z,60
2017-03-07T09:55:18.129Z,55
2017-03-07T09:56:27.450Z,55
2017-03-07T09:57:36.417Z,55
2017-03-07T09:58:45.402Z,55
2017-03-07T09:59:54.411Z,55
2017-03-07T10:01:03.805Z,60
2017-03-07T10:02:13.050Z,60
2017-03-07T10:03:22.034Z,60
2017-03-07T10:04:31.088Z,55
2017-03-07T10:05:40.059Z,55
2017-03-07T10:06:49.029Z,55
2017-03-07T10:07:58.251Z,55
2017-03-07T10:09:07.221Z,55
2017-03-07T10:10:16.628Z,55
2017-03-07T10:11:25.623Z,50
2017-03-07T10:12:35.015Z,50
2017-03-07T10:13:44.256Z,45
2017-03-07T10:14:53.229Z,45
2017-03-07T10:16:02.210Z,50
2017-03-07T10:17:11.210Z,50
2017-03-07T10:18:20.275Z,50
2017-03-07T10:19:29.508Z,55
2017-03-07T10:20:38.598Z,55
2017-03-07T10:21:47.585Z,60
2017-03-07T10:22:56.552Z,60
2017-03-07T10:24:05.524Z,55
2017-03-07T10:25:14.840Z,60
2017-03-07T10:26:23.824Z,60
2017-03-07T10:27:32.793Z,60
2017-03-07T10:28:41.794Z,65
2017-03-07T10:29:50.790Z,70
2017-03-07T10:31:00.074Z,80
2017-03-07T10:32:09.072Z,80
2017-03-07T10:33:18.135Z,85
2017-03-07T10:34:27.125Z,95
2017-03-07T10:35:36.122Z,110
2017-03-07T10:36:45.583Z,130
2017-03-07T10:37:54.572Z,110
2017-03-07T10:39:03.557Z,95
2017-03-07T10:40:12.542Z,95
2017-03-07T10:41:21.540Z,90
2017-03-07T10:42:31.221Z,85
2017-03-07T10:43:40.216Z,90
2017-03-07T10:44:49.276Z,85
2017-03-07T10:45:58.265Z,85
2017-03-07T10:47:07.244Z,80
2017-03-07T10:48:16.513Z,75
2017-03-07T10:49:25.529Z,70
2017-03-07T10:50:34.506Z,75
2017-03-07T10:51:43.497Z,85
2017-03-07T10:52:52.477Z,85
2017-03-07T10:54:01.782Z,90
2017-03-07T10:55:10.851Z,95
2017-03-07T10:56:19.834Z,95
2017-03-07T10:57:28.836Z,95
2017-03-07T10:58:37.914Z,110
2017-03-07T10:59:47.191Z,120
2017-03-07T11:00:56.173Z,120
2017-03-07T11:02:05.571Z,110
2017-03-07T11:03:14.647Z,95
2017-03-07T11:04:23.749Z,90
2017-03-07T11:05:32.999Z,95
2017-03-07T11:06:41.985Z,90
2017-03-07T11:07:50.976Z,75
2017-03-07T11:09:00.051Z,65
2017-03-07T11:10:09.176Z,60
2017-03-07T11:11:18.570Z,55
2017-03-07T11:12:27.558Z,50
2017-03-07T11:13:36.536Z,50
2017-03-07T11:14:45.522Z,50
2017-03-07T11:15:54.582Z,45
2017-03-07T11:17:03.813Z,45
2017-03-07T11:18:12.801Z,50
2017-03-07T11:19:21.875Z,55
2017-03-07T11:20:30.858Z,65
2017-03-07T11:21:39.840Z,70
2017-03-07T11:22:49.278Z,75
2017-03-07T11:23:58.336Z,80
2017-03-07T11:25:07.333Z,80
2017-03-07T11:26:16.339Z,80
2017-03-07T11:27:25.312Z,75
2017-03-07T11:28:34.537Z,70
2017-03-07T11:29:43.531Z,75
2017-03-07T11:30:52.527Z,85
2017-03-07T11:32:01.548Z,90
2017-03-07T11:33:10.520Z,95
2017-03-07T11:34:19.756Z,100
2017-03-07T11:35:28.930Z,105
2017-03-07T11:36:37.912Z,115
2017-03-07T11:37:46.885Z,120
2017-03-07T11:38:55.871Z,120
2017-03-07T11:40:05.135Z,105
2017-03-07T11:41:14.125Z,105
2017-03-07T11:42:23.103Z,105
2017-03-07T11:43:32.073Z,95
2017-03-07T11:44:41.051Z,85
2017-03-07T11:45:50.302Z,80
2017-03-07T11:46:59.269Z,75
2017-03-07T11:48:08.260Z,70
2017-03-07T11:49:17.247Z,65
2017-03-07T11:50:26.225Z,60
2017-03-07T11:51:35.521Z,60
2017-03-07T11:52:44.589Z,60
2017-03-07T11:53:53.559Z,60
2017-03-07T11:55:02.654Z,55
2017-03-07T11:56:11.656Z,55
2017-03-07T11:57:20.876Z,50
2017-03-07T11:58:29.856Z,50
2017-03-07T11:59:38.829Z,50
2017-03-07T12:00:47.815Z,50
2017-03-07T12:01:56.800Z,50
2017-03-07T12:03:06.044Z,50
2017-03-07T12:04:15.015Z,50
2017-03-07T12:05:24.000Z,55
2017-03-07T12:06:33.094Z,55
2017-03-07T12:07:42.069Z,55
2017-03-07T12:08:51.417Z,55
2017-03-07T12:10:00.384Z,60
2017-03-07T12:11:09.390Z,65
2017-03-07T12:12:18.373Z,60
2017-03-07T12:13:27.364Z,60
2017-03-07T12:14:36.669Z,60
2017-03-07T12:15:45.655Z,60
2017-03-07T12:16:55.034Z,65
2017-03-07T12:18:04.014Z,65
2017-03-07T12:19:13.002Z,65
2017-03-07T12:20:22.227Z,65
2017-03-07T12:21:31.207Z,65
2017-03-07T12:22:40.587Z,60
2017-03-07T12:23:49.735Z,65
2017-03-07T12:24:58.724Z,65
2017-03-07T12:26:07.950Z,65
2017-03-07T12:27:16.948Z,60
2017-03-07T12:28:25.918Z,60
2017-03-07T12:29:34.919Z,65
2017-03-07T12:30:43.894Z,70
2017-03-07T12:31:53.145Z,70
2017-03-07T12:33:02.226Z,75
2017-03-07T12:34:11.207Z,80
2017-03-07T12:35:20.177Z,80
2017-03-07T12:36:29.322Z,85
2017-03-07T12:37:38.550Z,85
2017-03-07T12:38:47.547Z,90
2017-03-07T12:39:57.035Z,90
2017-03-07T12:41:06.110Z,95
2017-03-07T12:42:15.127Z,105
2017-03-07T12:43:24.400Z,115
2017-03-07T12:44:33.376Z,110
2017-03-07T12:45:42.372Z,95
2017-03-07T12:46:51.554Z,85
2017-03-07T12:48:00.524Z,95
2017-03-07T12:49:09.775Z,90
2017-03-07T12:50:19.047Z,90
2017-03-07T12:51:28.024Z,90
2017-03-07T12:52:37.205Z,85
2017-03-07T12:53:46.202Z,90
2017-03-07T12:54:55.444Z,90
2017-03-07T12:56:04.526Z,85
2017-03-07T12:57:13.529Z,70
2017-03-07T12:58:23.769Z,65
2017-03-07T12:59:32.933Z,65
2017-03-07T13:00:42.236Z,60
2017-03-07T13:01:51.218Z,55
2017-03-07T13:03:00.194Z,55
2017-03-07T13:04:09.175Z,60
2017-03-07T13:05:18.421Z,60
2017-03-07T13:06:28.067Z,60
2017-03-07T13:07:37.048Z,55
2017-03-07T13:08:46.162Z,50
2017-03-07T13:09:55.402Z,40
2017-03-07T13:11:57.503Z,35
2017-03-07T13:13:06.762Z,35
2017-03-07T13:14:15.965Z,30
2017-03-07T13:15:25.701Z,30
2017-03-07T13:16:35.367Z,30
2017-03-07T13:17:44.925Z,30
2017-03-07T13:18:54.054Z,30
2017-03-07T13:20:03.204Z,30
2017-03-07T13:21:12.202Z,30
2017-03-07T13:22:21.186Z,30
2017-03-07T13:23:30.414Z,30
2017-03-07T13:24:39.420Z,30
2017-03-07T13:25:48.405Z,30
2017-03-07T13:26:57.377Z,30
2017-03-07T13:28:06.377Z,30
2017-03-07T13:29:15.666Z,25
2017-03-07T13:30:24.672Z,25
2017-03-07T13:31:33.987Z,30
2017-03-07T13:32:43.069Z,30
2017-03-07T13:33:52.347Z,30
2017-03-07T13:35:02.640Z,30
2017-03-07T13:36:11.639Z,30
2017-03-07T13:37:20.818Z,35
2017-03-07T13:38:29.896Z,35
2017-03-07T13:39:39.013Z,35
2017-03-07T13:40:48.338Z,35
2017-03-07T13:41:57.470Z,35
2017-03-07T13:43:06.524Z,35
2017-03-07T13:44:15.709Z,40
2017-03-07T13:45:25.046Z,40
2017-03-07T13:46:34.504Z,45
2017-03-07T13:47:43.786Z,50
2017-03-07T13:48:52.871Z,55
2017-03-07T13:50:02.062Z,60
2017-03-07T13:51:11.147Z,65
2017-03-07T13:52:20.823Z,70
2017-03-07T13:53:29.798Z,70
2017-03-07T13:54:38.984Z,75
2017-03-07T13:55:48.103Z,75
2017-03-07T13:56:57.089Z,75
2017-03-07T13:58:06.393Z,75
2017-03-07T13:59:15.362Z,80
2017-03-07T14:00:24.540Z,85
2017-03-07T14:01:34.010Z,85
2017-03-07T14:02:43.524Z,85
2017-03-07T14:03:53.010Z,80
2017-03-07T14:05:02.002Z,80
2017-03-07T14:06:10.996Z,75
2017-03-07T14:07:20.393Z,75
2017-03-07T14:08:29.368Z,70
2017-03-07T14:09:38.599Z,65
2017-03-07T14:10:47.593Z,60
2017-03-07T14:11:56.592Z,60
2017-03-07T14:13:05.596Z,65
2017-03-07T14:14:14.581Z,60
2017-03-07T14:15:23.868Z,55
2017-03-07T14:16:32.939Z,50
2017-03-07T14:17:41.921Z,45
2017-03-07T14:18:50.995Z,45
2017-03-07T14:19:59.985Z,45
2017-03-07T14:21:09.320Z,40
2017-03-07T14:22:18.316Z,45
2017-03-07T14:23:27.381Z,45
2017-03-07T14:24:36.374Z,45
2017-03-07T14:25:45.526Z,45
2017-03-07T14:26:54.858Z,50
2017-03-07T14:28:03.865Z,50
2017-03-07T14:29:12.921Z,45
2017-03-07T14:30:21.979Z,45
2017-03-07T14:31:31.023Z,45
2017-03-07T14:32:40.302Z,45
2017-03-07T14:33:49.424Z,45
2017-03-07T14:34:58.480Z,50
2017-03-07T14:36:07.579Z,55
2017-03-07T14:37:16.578Z,50
2017-03-07T14:38:25.857Z,50
2017-03-07T14:39:34.901Z,45
2017-03-07T14:40:43.957Z,40
2017-03-07T14:41:53.303Z,35
2017-03-07T14:43:02.721Z,30
2017-03-07T14:44:12.169Z,30
2017-03-07T14:45:21.284Z,25
2017-03-07T14:46:30.294Z,25
2017-03-07T14:47:39.355Z,30
2017-03-07T14:48:48.575Z,30
2017-03-07T14:49:58.693Z,25
2017-03-07T14:51:07.706Z,25
2017-03-07T14:52:16.746Z,25
2017-03-07T14:53:25.944Z,25
2017-03-07T14:54:35.225Z,25
2017-03-07T14:55:44.656Z,25
2017-03-07T14:56:53.941Z,25
2017-03-07T14:58:03.021Z,25
2017-03-07T14:59:12.213Z,25
2017-03-07T15:00:21.554Z,25
2017-03-07T15:01:30.972Z,25
2017-03-07T15:02:40.104Z,25
2017-03-07T15:03:49.080Z,25
2017-03-07T15:04:58.092Z,25
2017-03-07T15:06:07.285Z,25
2017-03-07T15:07:16.607Z,25
2017-03-07T15:08:25.658Z,25
2017-03-07T15:09:34.763Z,25
2017-03-07T15:10:43.845Z,25
2017-03-07T15:11:52.833Z,30
2017-03-07T15:13:02.682Z,30
2017-03-07T15:14:12.176Z,30
2017-03-07T15:15:21.174Z,30
2017-03-07T15:16:30.731Z,30
2017-03-07T15:17:39.804Z,30
2017-03-07T15:18:49.661Z,35
2017-03-07T15:19:58.641Z,35
2017-03-07T15:21:07.637Z,35
2017-03-07T15:22:16.637Z,35
2017-03-07T15:23:25.636Z,30
2017-03-07T15:24:34.899Z,30
2017-03-07T15:25:43.985Z,30
2017-03-07T15:26:53.031Z,30
2017-03-07T15:28:02.039Z,30
2017-03-07T15:29:11.140Z,30
2017-03-07T15:30:20.597Z,25
2017-03-07T15:31:29.594Z,25
2017-03-07T15:32:38.595Z,25
2017-03-07T15:33:47.571Z,25
2017-03-07T15:34:56.672Z,25
2017-03-07T15:36:06.938Z,25
2017-03-07T15:37:15.928Z,25
2017-03-07T15:38:24.921Z,30
2017-03-07T15:39:34.036Z,30
2017-03-07T15:40:43.016Z,30
2017-03-07T15:41:52.357Z,30
2017-03-07T15:43:01.358Z,30
2017-03-07T15:44:10.370Z,30
2017-03-07T15:45:19.360Z,30
2017-03-07T15:46:28.339Z,25
2017-03-07T15:47:37.564Z,25
2017-03-07T15:48:46.552Z,30
2017-03-07T15:49:55.534Z,30
2017-03-07T15:51:04.986Z,25
2017-03-07T15:52:13.999Z,25
2017-03-07T15:53:23.402Z,25
2017-03-07T15:54:32.403Z,20
2017-03-07T15:55:41.429Z,20
2017-03-07T15:56:50.425Z,20
2017-03-07T15:57:59.775Z,15
2017-03-07T15:59:09.060Z,15
2017-03-07T16:00:18.038Z,15
2017-03-07T16:01:27.014Z,15
2017-03-07T16:02:36.030Z,15
2017-03-07T16:03:45.072Z,15
2017-03-07T16:04:54.469Z,15
2017-03-07T16:06:03.479Z,15
2017-03-07T16:07:12.953Z,10
2017-03-07T16:08:22.020Z,10
2017-03-07T16:09:31.017Z,10
2017-03-07T16:10:40.262Z,10
2017-03-07T16:11:49.248Z,10
2017-03-07T16:12:58.251Z,10
2017-03-07T16:14:07.338Z,10
2017-03-07T16:15:16.343Z,10
2017-03-07T16:16:25.587Z,10
2017-03-07T16:17:34.689Z,10
2017-03-07T16:18:44.108Z,10
2017-03-07T16:19:53.202Z,5
2017-03-07T16:21:43.753Z,5
2017-03-07T16:22:53.218Z,5
2017-03-07T16:24:02.194Z,5
2017-03-07T16:25:11.372Z,5
2017-03-07T16:26:20.453Z,5
2017-03-07T16:27:29.720Z,5
2017-03-07T16:28:39.197Z,5
2017-03-07T16:29:48.361Z,5
2017-03-07T16:30:57.360Z,5
2017-03-07T16:32:06.395Z,0
2017-03-07T16:33:15.956Z,0
2017-03-07T16:34:24.941Z,0
2017-03-07T16:35:34.077Z,0
2017-03-07T16:36:43.165Z,0
2017-03-07T16:37:52.173Z,0
2017-03-07T16:39:01.443Z,0
2017-03-07T16:40:10.878Z,0